Date,TemperatureHighF,TemperatureAvgF,TemperatureLowF,DewpointHighF,DewpointAvgF,DewpointLowF,HumidityHigh,HumidityAvg,HumidityLow,PressureMaxIn,PressureMinIn,WindSpeedMaxMPH,WindSpeedAvgMPH,GustSpeedMaxMPH,PrecipitationSumIn
2013-1-1,15.0,4.7,-6.7,11.5,-0.2,-10.7,86,80,66,30.31,30.12,13,3,13,0.00
2013-1-2,20.0,16.4,12.8,15.1,11.9,8.6,92,82,70,30.12,30.00,14,3,14,0.00
2013-1-3,21.2,16.1,8.3,18.2,12.5,4.2,92,86,81,30.21,30.07,14,5,14,0.00
2013-1-4,30.2,19.5,9.6,20.3,14.4,6.3,89,81,65,30.18,30.01,16,4,16,0.00
2013-1-5,27.1,17.6,8.7,19.8,13.6,5.4,90,84,72,30.17,29.86,9,1,9,0.00
2013-1-6,24.8,20.6,12.8,20.7,15.6,8.8,88,81,68,30.22,29.95,14,3,14,0.00
2013-1-7,35.4,26.6,13.6,27.6,21.2,9.1,88,80,72,30.14,29.90,21,6,23,0.00
2013-1-8,39.4,29.4,18.4,31.7,24.9,15.4,90,83,69,30.02,29.77,22,3,22,0.00
2013-1-9,35.3,29.0,22.6,28.3,23.6,17.7,86,80,63,30.36,29.85,16,4,18,0.00
2013-1-10,41.7,31.9,23.8,33.0,24.3,19.6,92,75,42,30.40,29.77,11,2,13,0.00
2013-1-11,43.3,38.3,35.6,40.3,35.1,32.4,89,88,88,29.80,29.38,14,2,14,0.00
2013-1-12,43.3,23.5,11.3,41.0,18.2,5.1,92,80,73,30.04,29.38,30,10,30,0.41
2013-1-13,12.8,9.5,4.7,7.7,4.7,1.0,94,80,74,30.26,30.00,16,5,16,0.00
2013-1-14,13.4,7.3,3.0,8.3,3.3,-0.5,87,83,76,30.43,30.26,12,3,14,0.00
2013-1-15,28.2,19.3,5.2,19.6,12.8,1.9,86,76,66,30.39,29.89,20,6,20,0.00
2013-1-16,33.5,25.8,13.4,28.5,19.0,2.7,89,75,58,30.18,29.66,24,7,24,0.00
2013-1-17,17.2,11.4,5.6,10.5,3.0,-3.3,86,69,54,30.41,30.18,14,4,14,0.00
2013-1-18,40.5,25.2,8.2,33.2,20.5,4.4,88,82,70,30.37,29.74,16,3,16,0.00
2013-1-19,39.1,25.7,5.6,32.8,20.1,-2.6,92,79,61,30.09,29.60,36,8,37,0.08
2013-1-20,7.5,3.7,-0.2,-1.0,-3.7,-5.2,80,71,57,30.36,30.08,21,7,26,0.00
2013-1-21,2.3,-6.3,-9.2,-2.8,-14.0,-18.8,79,68,59,30.35,30.24,22,8,23,0.00
2013-1-22,-1.4,-6.5,-12.7,-7.1,-13.2,-18.2,79,72,62,30.47,30.33,13,3,13,0.00
2013-1-23,14.1,4.5,-5.8,7.9,-2.4,-13.0,92,73,57,30.61,30.15,25,4,25,0.00
2013-1-24,10.7,0.6,-8.8,3.2,-6.2,-13.9,89,73,62,30.74,30.30,8,1,8,0.00
2013-1-25,20.2,14.2,8.7,15.1,9.4,2.7,87,81,68,30.30,29.95,19,4,19,0.00
2013-1-26,23.1,12.0,-3.1,13.7,4.9,-7.2,92,73,59,30.42,30.23,12,1,12,0.00
2013-1-27,31.2,27.2,21.5,28.6,21.4,13.4,90,79,63,30.25,29.83,9,2,9,0.05
2013-1-28,33.7,32.1,30.7,30.8,29.2,27.9,90,89,87,29.91,29.68,8,1,8,0.00
2013-1-29,35.3,34.1,30.1,32.7,30.8,25.6,91,87,83,29.70,29.48,17,3,17,0.76
2013-1-30,30.1,20.1,11.2,25.6,15.5,4.5,94,82,74,29.67,29.52,23,7,23,0.10
2013-1-31,11.2,6.1,-2.5,4.9,-0.3,-8.7,83,74,67,30.21,29.67,21,9,21,0.00
2013-2-1,2.5,-4.1,-11.6,0.3,-10.9,-17.3,92,72,62,30.34,30.16,15,4,15,0.00
2013-2-2,9.6,5.2,-0.1,3.8,-1.0,-4.8,92,75,61,30.23,30.01,9,1,9,0.01
2013-2-3,14.9,10.8,6.4,7.0,4.1,2.0,86,75,59,30.06,29.98,18,4,18,0.01
2013-2-4,14.8,10.0,1.0,7.3,0.8,-4.8,83,66,49,30.08,29.88,12,2,12,0.00
2013-2-5,25.7,17.6,8.0,21.2,12.9,2.7,90,82,66,30.10,29.68,17,3,17,0.03
2013-2-6,25.3,14.1,-2.1,22.0,10.7,-6.3,89,86,81,30.18,30.04,8,1,8,0.05
2013-2-7,26.5,25.5,24.2,23.5,22.4,20.0,91,88,84,30.25,30.05,10,2,10,0.00
2013-2-8,28.7,19.7,8.9,20.0,10.9,4.5,89,70,43,30.41,30.25,6,1,7,0.00
2013-2-9,28.0,23.3,13.6,24.6,19.4,7.4,89,85,73,30.33,30.00,16,3,17,0.00
2013-2-10,36.5,31.3,26.2,33.6,28.5,23.0,90,89,87,30.01,29.23,14,2,14,0.24
2013-2-11,35.0,28.7,22.4,32.1,24.9,17.6,91,85,79,29.98,29.23,24,9,24,0.00
2013-2-12,33.7,24.3,15.3,24.9,19.3,12.1,92,81,69,30.02,29.78,16,5,16,0.35
2013-2-13,34.1,27.9,21.3,29.4,23.8,18.6,90,85,76,29.79,29.57,11,2,11,0.00
2013-2-14,33.4,27.2,14.1,29.5,20.2,4.5,91,75,63,30.10,29.57,19,4,19,0.18
2013-2-15,17.1,12.5,8.7,6.4,3.9,1.7,77,68,56,30.26,30.10,17,4,17,0.00
2013-2-16,16.3,8.9,0.5,5.8,1.8,-3.9,86,73,57,30.24,30.18,11,2,11,0.00
2013-2-17,29.6,13.8,-5.7,16.2,5.7,-10.4,86,71,53,30.20,29.80,13,2,13,0.00
2013-2-18,35.1,27.1,17.2,30.8,22.4,13.5,90,82,75,29.80,29.50,25,5,25,0.00
2013-2-19,17.2,8.0,3.1,13.1,-0.2,-4.9,84,69,56,30.31,29.63,25,9,25,0.00
2013-2-20,24.9,11.2,-0.3,11.4,3.7,-5.2,89,72,54,30.46,30.31,13,2,13,0.00
2013-2-21,24.5,13.2,-3.0,14.6,6.4,-7.1,87,74,60,30.53,30.15,5,0,5,0.00
2013-2-22,30.3,25.3,20.9,26.3,22.2,16.0,91,88,81,30.15,29.82,10,1,10,0.14
2013-2-23,30.6,25.9,22.5,25.2,22.4,19.9,92,87,78,29.93,29.81,11,3,11,0.15
2013-2-24,36.9,28.5,23.8,25.7,22.8,20.7,88,79,61,30.10,29.93,9,2,9,0.00
2013-2-25,33.2,28.6,21.2,28.9,24.7,17.8,92,85,81,30.12,30.04,7,1,7,0.00
2013-2-26,38.2,32.9,28.2,28.7,26.8,24.3,92,78,67,30.07,29.82,10,2,11,0.00
2013-2-27,36.1,32.7,30.8,28.4,26.6,24.6,85,78,71,29.94,29.79,19,4,19,0.00
2013-2-28,32.3,28.8,23.3,27.0,22.2,16.6,85,76,67,30.22,29.94,15,3,15,0.00
2013-3-1,32.7,24.6,16.4,17.6,15.3,11.9,83,68,46,30.33,30.21,11,2,11,0.00
2013-3-2,29.5,18.6,5.6,15.4,10.1,2.3,89,70,47,30.35,30.19,14,2,14,0.00
2013-3-3,32.3,20.0,6.1,11.6,3.3,-5.9,81,52,21,30.19,30.07,9,0,9,0.00
2013-3-4,29.5,24.2,17.2,19.1,11.3,-0.8,78,58,41,30.10,30.02,12,2,13,0.00
2013-3-5,28.1,25.6,23.2,24.5,21.7,17.5,89,85,72,30.23,30.02,11,2,11,0.24
2013-3-6,29.3,23.3,13.4,20.9,16.9,9.8,87,77,61,30.37,30.21,14,4,14,0.00
2013-3-7,34.7,21.0,2.7,19.9,12.6,-1.1,97,71,48,30.44,30.36,10,1,10,0.00
2013-3-8,41.9,30.5,18.6,29.9,23.0,14.5,87,74,61,30.41,30.17,15,2,17,0.00
2013-3-9,37.2,34.5,30.9,34.3,31.2,25.3,90,87,75,30.17,29.72,10,2,10,0.20
2013-3-10,36.8,35.0,30.7,33.9,31.5,28.1,91,87,81,29.90,29.73,11,2,12,0.17
2013-3-11,33.9,29.4,26.3,28.9,25.8,22.0,91,86,79,29.80,29.65,15,3,16,0.42
2013-3-12,30.1,25.1,19.4,23.5,18.2,14.0,89,76,54,30.11,29.76,24,6,24,0.00
2013-3-13,32.0,22.5,13.3,16.2,9.4,5.3,82,59,36,30.33,30.11,17,5,18,0.00
2013-3-14,35.2,25.3,16.1,28.4,20.1,10.6,88,80,69,30.29,30.02,6,1,9,0.00
2013-3-15,36.4,30.3,25.9,31.7,26.1,23.1,92,84,69,30.02,29.84,9,1,9,0.00
2013-3-16,27.2,21.5,15.5,23.4,13.8,6.5,90,73,56,30.20,29.86,18,4,18,0.26
2013-3-17,25.6,16.6,4.2,14.1,6.8,-2.0,76,65,52,30.29,29.99,13,2,13,0.00
2013-3-18,29.2,22.1,16.1,26.4,18.3,11.9,90,85,76,29.99,29.56,25,5,26,0.00
2013-3-19,24.2,16.1,9.5,12.1,7.0,0.9,84,68,52,30.09,29.67,26,12,26,0.31
2013-3-20,20.4,11.2,2.8,6.9,1.4,-4.7,82,64,54,30.13,30.09,23,6,23,0.00
2013-3-21,25.2,13.4,-1.0,12.5,5.7,-4.7,87,72,55,30.14,30.06,12,3,14,0.00
2013-3-22,35.8,26.3,9.1,18.6,14.3,4.5,85,61,47,30.10,30.02,13,3,13,0.00
2013-3-23,40.0,29.0,16.3,24.8,20.3,11.5,89,71,51,30.16,30.06,10,1,10,0.00
2013-3-24,34.1,30.1,26.6,25.8,23.0,18.7,81,75,65,30.10,29.92,13,2,13,0.00
2013-3-25,39.2,29.1,17.4,25.6,20.6,13.8,87,71,51,30.18,29.98,14,2,14,0.00
2013-3-26,38.4,32.1,24.8,26.1,23.0,20.4,84,70,52,30.27,30.18,11,2,11,0.00
2013-3-27,41.4,35.1,27.3,24.3,21.4,18.0,77,59,40,30.32,30.27,15,2,15,0.00
2013-3-28,43.9,32.8,17.7,23.3,19.6,14.2,87,60,39,30.35,30.27,11,2,11,0.00
2013-3-29,48.8,36.4,21.5,27.1,22.4,16.6,83,59,36,30.32,30.12,11,2,11,0.00
2013-3-30,41.6,39.3,34.8,38.9,33.9,26.2,90,82,58,30.12,29.78,20,3,20,0.59
2013-3-31,39.6,34.1,26.6,33.4,25.3,15.1,91,72,41,29.99,29.71,26,6,26,0.00
2013-4-1,32.9,26.2,19.7,17.5,14.2,10.5,76,60,44,30.20,29.98,20,7,20,0.00
2013-4-2,35.6,26.3,17.3,17.9,15.1,11.3,78,63,41,30.34,30.19,19,5,19,0.00
2013-4-3,41.5,30.4,14.2,24.6,17.0,10.3,87,60,34,30.45,30.12,20,3,20,0.00
2013-4-4,48.8,40.9,33.0,35.2,27.7,21.0,77,60,43,30.12,29.98,18,6,21,0.00
2013-4-5,41.1,34.4,24.4,31.1,21.5,16.5,90,60,39,30.24,30.01,12,1,12,0.00
2013-4-6,47.2,37.5,32.7,36.3,31.9,26.8,96,81,56,30.01,29.49,16,3,16,0.41
2013-4-7,44.2,37.8,34.7,34.9,33.0,31.5,90,83,69,29.93,29.66,14,3,14,0.04
2013-4-8,42.1,38.9,36.6,39.4,35.9,33.6,94,89,85,30.01,29.71,10,1,10,0.65
2013-4-9,41.7,38.1,33.8,37.1,33.6,25.5,90,84,63,30.13,29.97,12,2,12,0.18
2013-4-10,41.6,35.9,28.9,29.3,26.2,20.6,90,69,47,30.17,29.92,8,1,8,0.01
2013-4-11,38.2,34.4,30.3,32.0,27.5,19.0,90,77,50,29.93,29.67,14,2,15,0.20
2013-4-12,36.4,31.9,28.7,31.7,28.2,25.8,92,86,72,29.78,29.62,12,2,12,0.29
2013-4-13,35.2,30.2,25.4,26.3,23.8,20.1,90,77,57,29.99,29.77,17,4,18,0.01
2013-4-14,35.4,29.4,22.6,32.8,25.8,19.0,92,86,73,29.99,29.59,15,1,15,0.00
2013-4-15,39.4,36.9,35.1,33.8,30.9,27.4,91,79,67,29.92,29.58,27,8,31,0.18
2013-4-16,44.1,37.8,31.7,30.9,29.6,27.1,83,73,58,30.31,29.91,16,5,16,0.00
2013-4-17,43.1,36.8,30.4,33.8,30.0,26.2,90,77,63,30.33,29.86,10,1,10,0.11
2013-4-18,38.2,35.7,32.4,34.8,33.0,29.8,91,90,87,29.89,29.29,12,2,12,0.35
2013-4-19,35.0,30.9,26.4,29.8,26.0,20.4,91,82,65,29.95,29.26,28,8,28,0.12
2013-4-20,39.7,30.0,18.2,20.5,15.3,10.0,92,58,30,30.34,29.94,15,2,15,0.01
2013-4-21,43.8,36.3,30.7,40.8,30.3,17.3,96,79,54,30.37,30.09,18,3,18,0.37
2013-4-22,44.4,38.5,33.4,41.4,35.8,31.1,91,90,88,30.18,29.99,14,2,14,0.70
2013-4-23,42.3,36.1,31.9,32.1,28.6,23.6,91,75,49,30.06,29.95,20,4,20,0.21
2013-4-24,49.6,37.3,26.7,34.2,27.6,22.0,90,69,42,30.02,29.86,24,6,25,0.03
2013-4-25,46.4,38.3,32.1,34.0,31.3,29.5,91,77,56,30.18,29.93,16,4,16,0.01
2013-4-26,70.2,54.3,38.3,47.5,39.6,29.1,80,59,40,30.16,29.99,22,5,22,0.01
2013-4-27,72.3,57.9,42.4,51.7,46.7,39.0,90,69,42,30.09,29.89,19,3,19,0.00
2013-4-28,73.8,61.1,47.8,52.7,47.0,43.2,84,62,40,29.90,29.65,20,4,20,0.03
2013-4-29,74.3,61.3,52.3,57.3,53.3,48.7,90,76,52,29.73,29.57,14,2,14,0.01
2013-4-30,79.1,66.4,57.1,60.8,51.6,32.7,87,62,34,29.86,29.43,29,6,29,0.00
2013-5-1,58.9,43.6,34.3,45.3,38.0,31.7,90,82,38,30.42,29.85,16,3,16,0.20
2013-5-2,36.0,33.3,31.5,33.5,30.7,28.9,91,90,89,30.47,30.37,19,2,19,0.20
2013-5-3,36.1,33.2,31.0,32.9,30.7,28.5,91,90,87,30.38,30.12,12,2,12,0.00
2013-5-4,52.4,41.2,34.1,44.0,37.2,31.6,92,86,69,30.13,30.07,9,1,9,3.18
2013-5-5,69.2,51.5,35.9,50.8,41.6,33.3,91,71,48,30.13,30.01,10,1,12,0.02
2013-5-6,75.0,58.7,37.9,51.2,42.5,35.2,90,60,29,30.07,29.95,13,2,13,0.00
2013-5-7,78.4,61.7,47.0,46.5,43.1,41.3,84,54,29,29.99,29.90,10,1,10,0.00
2013-5-8,79.8,65.9,48.4,51.3,47.6,41.3,87,55,27,29.95,29.87,14,2,14,0.00
2013-5-9,64.4,52.9,40.7,50.3,46.4,37.0,94,79,59,30.02,29.88,11,2,12,0.43
2013-5-10,64.9,50.7,36.3,37.3,31.9,25.1,88,53,24,30.05,29.84,14,2,14,0.00
2013-5-11,54.0,45.8,40.0,39.5,31.0,24.5,76,57,40,30.08,29.79,34,9,34,0.02
2013-5-12,55.2,43.7,32.5,30.4,23.2,16.9,72,47,24,30.14,30.05,23,5,23,0.00
2013-5-13,61.2,49.4,32.8,38.5,30.1,22.5,70,49,28,30.13,29.70,18,3,18,0.00
2013-5-14,89.2,68.3,45.8,57.4,46.7,37.7,79,50,24,29.74,29.37,26,3,33,0.01
2013-5-15,77.0,69.5,61.4,50.2,47.0,41.8,62,45,33,29.81,29.51,22,6,22,0.00
2013-5-16,82.3,68.0,49.1,52.2,44.1,33.1,87,47,23,29.90,29.75,10,1,10,0.00
2013-5-17,64.3,56.9,52.2,52.0,47.2,36.0,89,71,36,30.00,29.88,12,2,13,0.14
2013-5-18,78.3,62.9,52.3,64.5,56.3,49.2,89,80,60,30.00,29.79,18,2,18,0.13
2013-5-19,85.2,70.0,62.6,66.4,62.2,58.8,89,78,49,29.82,29.54,20,2,21,0.44
2013-5-20,76.3,67.0,59.6,62.7,59.7,55.5,90,78,56,29.60,29.47,31,4,31,0.83
2013-5-21,67.2,61.3,54.4,62.9,57.8,51.3,90,88,83,29.63,29.46,22,1,22,1.28
2013-5-22,60.0,53.0,48.8,54.3,49.7,46.0,90,88,79,29.90,29.62,7,0,7,0.31
2013-5-23,62.2,51.2,41.0,47.3,37.1,30.3,87,62,32,30.31,29.90,17,1,17,0.00
2013-5-24,67.0,52.2,34.9,46.5,38.2,32.3,90,62,36,30.41,30.23,11,1,11,0.00
2013-5-25,63.1,55.9,49.1,50.2,44.8,37.8,80,67,44,30.28,30.22,11,1,11,0.00
2013-5-26,65.8,56.6,43.2,47.7,42.2,37.2,89,60,40,30.25,30.08,15,1,15,0.00
2013-5-27,62.1,56.5,52.6,53.3,48.2,42.6,90,74,62,30.08,29.83,11,1,11,0.20
2013-5-28,58.1,55.1,51.9,54.9,51.9,48.8,92,89,88,29.83,29.66,5,0,7,0.10
2013-5-29,77.7,63.1,56.4,69.2,59.0,52.9,90,86,72,29.81,29.66,28,1,28,0.30
2013-5-30,76.5,69.4,63.2,69.0,64.2,59.6,90,84,72,29.71,29.48,26,2,26,0.26
2013-5-31,77.8,65.5,56.4,64.2,59.9,52.1,92,83,59,29.58,29.49,43,2,43,1.52
2013-6-1,71.2,59.1,47.7,62.6,54.9,43.3,92,86,67,29.81,29.51,15,2,15,0.29
2013-6-2,64.5,52.1,43.8,49.2,43.8,40.7,91,75,44,30.01,29.81,17,2,17,0.11
2013-6-3,70.1,58.2,43.2,51.6,45.2,40.0,91,65,36,30.04,29.93,12,1,12,0.00
2013-6-4,58.7,55.6,53.3,53.3,49.5,42.5,92,80,59,30.11,29.99,8,0,8,0.04
2013-6-5,55.9,53.7,52.2,52.1,50.2,48.7,90,88,87,30.08,29.92,6,0,6,0.56
2013-6-6,55.4,53.3,51.6,52.5,50.1,48.2,90,89,88,29.98,29.90,4,0,4,0.04
2013-6-7,68.5,58.8,51.5,54.9,50.6,43.1,90,76,48,29.99,29.87,7,0,7,0.00
2013-6-8,69.9,61.2,51.2,58.7,53.8,48.4,90,77,63,29.91,29.86,7,0,7,0.00
2013-6-9,66.3,59.8,54.1,63.1,56.0,51.2,90,87,79,29.91,29.76,8,0,8,0.22
2013-6-10,76.3,67.1,57.6,65.2,60.8,54.4,90,81,62,29.78,29.74,9,1,11,0.00
2013-6-11,78.3,67.4,56.1,67.1,61.6,52.9,90,82,64,29.83,29.73,11,1,11,0.00
2013-6-12,70.4,66.0,61.5,66.4,62.5,58.5,90,88,82,29.85,29.66,7,0,7,0.32
2013-6-13,77.5,66.2,55.1,63.2,55.5,51.3,90,70,45,30.03,29.78,13,0,13,0.00
2013-6-14,77.2,65.3,51.8,60.5,54.6,49.0,90,70,47,30.08,29.87,17,1,17,0.20
2013-6-15,71.3,65.3,61.2,67.8,62.0,58.0,90,89,85,29.91,29.73,29,1,29,0.93
2013-6-16,81.1,70.0,57.8,63.4,57.1,52.0,91,67,41,29.83,29.75,19,3,19,0.01
2013-6-17,78.0,67.0,54.9,62.6,57.4,52.0,92,73,51,29.95,29.77,17,1,17,0.00
2013-6-18,74.3,63.6,55.2,55.7,51.0,41.8,87,66,36,30.06,29.95,9,0,9,0.00
2013-6-19,78.9,67.2,52.9,63.3,56.6,48.9,87,70,55,30.07,29.93,12,1,12,0.00
2013-6-20,82.8,71.2,61.9,70.6,63.2,57.8,89,77,58,30.00,29.88,24,1,24,0.28
2013-6-21,76.9,69.0,64.4,68.9,64.4,60.8,90,86,74,30.02,29.64,26,2,26,0.86
2013-6-22,77.7,69.6,63.2,71.8,65.6,59.9,90,87,78,29.97,29.79,13,0,13,0.21
2013-6-23,82.0,74.3,66.6,70.9,67.3,63.6,90,79,61,29.82,29.68,26,4,26,0.00
2013-6-24,80.8,72.7,64.7,71.6,67.3,61.4,90,83,70,29.85,29.73,19,2,19,0.00
2013-6-25,82.5,73.6,64.5,72.8,67.1,61.0,90,81,64,29.79,29.66,11,0,11,0.00
2013-6-26,81.7,73.6,69.0,75.2,69.7,65.7,90,88,77,29.69,29.60,21,1,22,0.65
2013-6-27,83.8,74.3,62.9,72.2,64.3,58.8,90,73,47,29.73,29.64,24,4,24,0.07
2013-6-28,65.8,62.6,61.2,61.5,58.8,57.6,90,88,85,29.70,29.62,13,2,22,0.01
2013-7-3,77.2,68.0,65.1,59.3,58.0,55.1,81,71,47,29.94,29.92,1,0,4,0.00
2013-7-4,83.3,71.7,58.2,67.1,61.6,55.3,90,72,50,29.94,29.84,15,2,15,0.00
2013-7-5,85.4,75.2,62.6,65.9,62.4,58.7,88,66,48,29.90,29.79,20,2,20,0.00
2013-7-6,87.5,78.0,67.8,71.6,66.8,62.2,83,69,55,29.85,29.78,18,2,18,0.00
2013-7-7,85.8,78.4,70.1,74.7,70.6,66.7,89,77,65,29.80,29.75,16,1,16,0.04
2013-7-8,86.4,75.8,69.9,74.7,70.1,66.6,90,83,64,29.89,29.76,8,0,8,0.00
2013-7-9,81.6,73.8,67.3,74.1,68.8,64.1,90,85,70,29.90,29.69,22,2,22,0.85
2013-7-10,78.0,69.6,62.0,68.6,60.1,56.5,90,73,49,29.95,29.75,20,2,20,0.00
2013-7-11,83.5,73.6,58.6,65.6,60.3,55.2,90,65,41,30.05,29.95,9,1,9,0.00
2013-7-12,83.5,73.8,64.1,65.6,62.2,59.7,86,68,48,30.02,29.90,18,2,18,0.00
2013-7-13,79.8,71.5,64.4,65.9,63.0,60.2,90,75,60,30.03,29.91,19,1,19,0.04
2013-7-14,84.9,75.4,66.0,70.7,65.7,61.7,89,73,55,30.13,30.03,17,2,17,0.00
2013-7-15,89.3,77.1,65.5,74.2,68.0,62.3,90,75,52,30.18,30.10,17,1,17,0.00
2013-7-16,91.2,81.9,73.7,76.3,72.4,69.7,89,74,54,30.14,30.08,16,3,16,0.00
2013-7-17,90.5,82.2,72.6,75.0,71.8,68.6,88,72,53,30.16,30.03,13,2,13,0.00
2013-7-18,92.5,83.6,74.7,75.4,71.7,69.5,86,69,50,30.03,29.67,26,6,26,0.00
2013-7-19,84.1,78.8,68.7,74.4,66.8,59.2,85,68,48,29.76,29.59,21,6,21,0.01
2013-7-20,79.2,69.9,62.6,63.2,59.2,49.8,89,70,53,29.91,29.74,8,0,8,0.00
2013-7-21,74.0,65.3,60.0,66.7,58.8,49.7,88,80,63,29.92,29.79,4,0,5,0.12
2013-7-22,84.2,70.6,61.4,76.1,64.5,57.4,89,81,66,29.81,29.55,16,2,16,0.14
2013-7-23,75.0,63.5,54.4,59.8,54.4,50.9,92,74,46,29.96,29.72,12,0,12,0.00
2013-7-24,73.5,62.0,48.9,59.1,52.9,46.1,90,74,49,30.03,29.93,10,1,10,0.00
2013-7-25,80.2,68.6,57.3,67.1,61.1,53.5,88,78,57,29.94,29.82,16,3,16,0.00
2013-7-26,71.0,63.6,51.0,62.4,58.0,47.2,89,82,63,29.96,29.79,20,3,22,0.28
2013-7-27,56.2,52.0,46.6,51.0,47.9,43.8,90,86,75,29.96,29.82,17,3,19,0.06
2013-7-28,68.7,57.1,48.3,57.8,51.8,45.3,92,83,64,30.00,29.85,16,2,16,0.00
2013-7-29,77.2,63.2,48.8,60.5,54.5,45.9,90,75,49,30.09,30.00,9,1,9,0.00
2013-7-30,72.0,65.9,60.7,64.9,61.0,57.3,89,84,74,30.08,29.98,9,0,9,0.03
2013-7-31,78.3,68.7,58.3,66.3,60.8,52.8,89,77,51,30.00,29.87,19,3,19,0.00
2013-8-1,78.8,66.5,53.7,61.0,55.1,50.2,89,69,43,29.94,29.79,17,3,17,0.00
2013-8-2,76.0,65.9,54.6,61.4,56.1,51.5,92,72,48,29.95,29.75,12,1,12,0.00
2013-8-3,75.5,63.1,51.2,57.2,53.0,48.1,90,72,45,30.12,29.95,14,1,14,0.00
2013-8-4,75.1,62.4,49.0,59.5,53.2,46.1,92,74,49,30.20,30.01,10,1,10,0.00
2013-8-5,73.9,64.5,56.3,66.3,60.0,52.7,89,86,75,30.01,29.75,14,1,14,0.07
2013-8-6,80.3,69.4,61.3,68.7,62.3,57.7,90,79,50,29.77,29.59,46,2,46,0.38
2013-8-7,75.3,65.4,56.0,63.0,57.4,52.7,90,77,48,29.96,29.66,11,1,11,0.00
2013-8-8,77.8,63.6,49.6,59.3,54.2,46.8,90,74,47,30.00,29.91,12,2,12,0.00
2013-8-9,76.0,65.2,56.6,58.1,55.2,52.5,90,72,49,30.04,29.91,18,2,18,0.00
2013-8-10,73.3,64.8,56.4,58.8,55.8,53.0,89,74,53,30.10,30.03,6,1,9,0.00
2013-8-11,77.7,65.3,53.9,64.0,58.3,50.9,90,79,58,30.05,29.93,8,0,8,0.00
2013-8-12,78.8,67.1,54.5,64.2,58.6,50.9,89,76,48,30.00,29.88,15,1,15,0.08
2013-8-13,73.3,59.7,47.3,54.9,50.5,44.4,90,74,46,30.14,30.00,9,0,10,0.00
2013-8-14,75.7,61.4,49.8,55.8,50.9,47.0,90,72,42,30.16,30.05,15,1,15,0.00
2013-8-15,80.2,68.1,54.1,58.7,53.6,48.8,90,63,35,30.09,30.01,14,2,14,0.00
2013-8-16,81.5,67.5,53.1,61.5,56.1,50.2,90,70,41,30.13,30.06,10,1,10,0.00
2013-8-17,82.4,68.0,53.1,61.2,55.7,50.2,90,68,39,30.16,30.05,17,2,17,0.00
2013-8-18,82.5,69.2,56.5,61.5,57.5,53.0,92,69,42,30.11,29.97,17,2,17,0.00
2013-8-19,83.8,71.7,61.2,67.9,63.0,57.0,87,75,57,29.98,29.86,15,2,16,0.00
2013-8-20,88.8,76.7,64.5,72.7,68.1,61.2,89,76,58,29.89,29.80,21,2,21,0.00
2013-8-21,87.2,75.3,66.7,74.7,68.9,62.7,89,81,64,29.92,29.78,23,2,23,1.48
2013-8-22,84.8,70.9,59.2,65.1,59.9,53.7,90,71,36,30.06,29.91,9,0,9,0.00
2013-8-23,84.3,68.3,52.4,66.7,59.4,49.4,90,75,50,30.11,30.00,10,1,11,0.00
2013-8-24,85.1,72.2,63.2,72.7,65.4,58.0,89,80,64,30.10,29.93,16,1,16,0.04
2013-8-25,92.1,82.4,75.3,76.9,73.4,69.8,86,75,59,29.97,29.87,23,5,23,0.00
2013-8-26,93.5,82.7,74.8,79.0,74.3,69.4,89,76,60,29.95,29.77,14,3,15,0.00
2013-8-27,91.6,81.2,72.4,80.2,74.8,69.0,89,81,64,29.81,29.69,11,1,11,0.00
2013-8-28,86.2,75.7,68.9,75.4,69.7,64.9,89,82,63,29.95,29.81,9,0,9,0.00
2013-8-29,89.9,78.8,69.2,77.9,72.3,65.5,89,81,66,29.96,29.75,13,1,13,0.00
2013-8-30,84.5,76.1,64.3,74.6,68.8,61.0,89,79,57,29.82,29.71,14,1,14,0.00
2013-8-31,84.8,71.0,58.9,69.6,63.7,55.5,90,79,56,29.83,29.65,10,1,10,0.00
2013-9-1,77.0,69.9,62.1,67.7,63.0,56.2,90,79,61,29.85,29.64,17,2,17,0.11
2013-9-2,70.8,60.7,50.3,56.2,53.0,47.3,90,77,55,29.99,29.85,10,1,10,0.00
2013-9-3,75.7,59.7,43.6,57.8,51.1,40.8,90,75,48,30.05,29.94,12,2,12,0.00
2013-9-4,81.0,67.1,56.7,67.7,58.9,52.6,89,76,56,30.11,29.96,8,0,8,0.00
2013-9-5,81.0,63.3,48.8,60.7,54.6,45.7,92,76,40,30.22,30.09,9,0,9,0.00
2013-9-6,88.0,72.2,59.0,69.5,62.6,54.6,90,73,50,30.10,29.83,18,2,19,0.00
2013-9-7,91.3,76.5,65.9,73.0,67.3,60.9,89,74,53,29.95,29.78,6,0,6,0.00
2013-9-8,74.5,64.9,54.5,62.2,56.7,51.3,90,76,50,30.02,29.86,7,0,8,0.01
2013-9-9,88.0,74.5,65.6,76.0,68.1,62.3,89,81,61,29.86,29.57,16,1,16,0.01
2013-9-10,80.3,72.6,68.3,71.2,66.9,63.6,89,83,62,29.88,29.64,11,2,11,0.01
2013-9-11,85.0,70.7,60.2,64.6,58.8,52.2,89,69,38,29.95,29.87,21,3,21,0.00
2013-9-12,71.3,60.1,49.2,55.3,51.2,44.6,92,74,48,30.17,29.91,16,1,16,0.00
2013-9-13,69.3,54.9,40.2,48.3,44.7,37.5,90,71,42,30.24,30.07,8,0,9,0.00
2013-9-14,71.9,56.9,42.8,55.1,47.7,39.4,90,74,46,30.07,29.88,16,2,16,0.40
2013-9-15,63.7,56.3,43.9,57.9,51.8,40.8,90,85,77,30.27,29.87,11,0,11,0.37
2013-9-16,65.8,49.9,36.1,48.2,41.2,33.4,95,74,38,30.40,30.26,7,0,7,0.00
2013-9-17,66.8,54.8,42.8,54.8,47.6,39.7,90,78,53,30.28,29.97,16,1,16,0.05
2013-9-18,71.5,64.0,57.6,66.8,60.2,54.1,89,87,84,29.97,29.71,16,0,16,0.19
2013-9-19,78.5,69.4,65.8,72.0,65.4,62.0,89,87,78,29.72,29.60,22,1,22,0.33
2013-9-20,66.5,60.3,51.1,63.1,55.7,47.8,90,85,68,29.81,29.63,22,4,25,0.08
2013-9-21,62.4,52.5,43.1,49.2,46.2,40.3,90,80,58,29.93,29.81,12,1,12,0.00
2013-9-22,66.7,51.9,38.5,51.4,44.2,35.5,90,76,53,30.03,29.91,8,0,8,0.01
2013-9-23,70.5,57.3,47.2,55.1,49.4,44.0,90,76,54,30.01,29.91,14,1,14,0.00
2013-9-24,74.8,58.4,46.3,56.6,50.8,43.2,90,78,48,29.98,29.88,7,0,7,0.00
2013-9-25,71.5,57.8,46.2,57.2,50.8,43.1,90,79,52,29.97,29.88,10,0,10,0.01
2013-9-26,74.7,61.0,49.7,59.9,53.4,46.6,92,77,58,29.98,29.90,9,1,9,0.00
2013-9-27,80.0,68.0,56.8,64.1,56.8,50.8,81,68,55,29.97,29.82,21,2,25,0.00
2013-9-28,72.7,61.1,49.7,62.5,54.2,46.6,90,79,59,29.88,29.61,29,3,29,0.26
2013-9-29,72.6,57.0,43.8,53.0,47.8,40.9,90,74,44,29.95,29.83,13,1,13,0.00
2013-9-30,73.8,61.8,51.8,55.1,50.6,47.0,84,68,45,29.83,29.63,23,2,23,0.00
2013-10-1,75.7,65.3,52.1,58.2,46.8,35.9,80,55,25,29.90,29.58,15,4,20,0.00
2013-10-2,75.7,57.4,39.7,52.7,43.3,36.7,90,64,29,30.04,29.86,10,0,13,0.44
2013-10-3,61.1,56.9,53.5,56.9,53.4,50.0,90,88,85,29.94,29.77,14,0,16,1.12
2013-10-4,58.0,56.7,55.1,54.5,53.4,51.5,90,89,88,29.96,29.85,8,0,8,0.20
2013-10-5,63.2,58.3,51.9,59.5,54.8,48.8,90,88,88,29.88,29.62,21,1,21,0.59
2013-10-6,58.2,50.1,42.9,49.0,45.3,39.9,91,84,63,29.74,29.62,13,2,13,0.04
2013-10-7,64.3,51.0,42.1,50.8,43.5,39.1,90,77,42,29.98,29.74,14,2,14,0.01
2013-10-8,74.0,58.4,43.1,51.2,46.2,40.1,90,67,42,29.99,29.88,15,2,20,0.00
2013-10-9,73.8,62.0,52.3,55.3,50.6,46.9,83,67,49,30.05,29.93,11,2,18,0.00
2013-10-10,72.7,58.0,45.4,52.7,48.0,42.3,90,71,45,30.05,29.92,15,1,15,0.00
2013-10-11,75.0,63.6,52.4,58.8,53.9,48.4,89,72,52,29.93,29.69,23,2,23,0.00
2013-10-12,66.9,56.1,48.5,56.6,47.0,40.9,82,72,58,30.08,29.67,28,7,28,0.00
2013-10-13,60.1,47.6,37.6,43.0,37.6,31.0,90,72,34,30.38,30.08,16,2,16,0.00
2013-10-14,56.7,46.8,35.3,44.4,38.7,32.4,90,75,53,30.41,30.03,13,0,13,0.00
2013-10-15,55.1,50.3,46.8,51.6,46.9,42.7,92,88,73,30.04,29.63,19,3,19,1.15
2013-10-16,48.7,45.2,39.1,46.0,41.8,36.4,92,88,79,29.88,29.68,12,2,12,0.05
2013-10-17,52.6,43.6,33.2,45.1,39.4,30.6,91,85,71,29.86,29.73,7,1,7,0.04
2013-10-18,50.3,44.0,39.2,43.6,37.8,32.6,95,80,52,29.89,29.72,15,3,18,0.15
2013-10-19,45.9,39.7,34.0,39.9,35.4,31.4,90,84,76,29.82,29.65,13,3,13,0.00
2013-10-20,41.1,36.3,29.7,39.7,33.6,27.1,95,90,89,29.77,29.63,17,2,17,0.12
2013-10-21,37.3,35.2,32.7,34.3,27.9,22.4,90,75,57,29.89,29.77,21,7,21,0.00
2013-10-22,40.6,35.0,27.9,32.2,28.7,23.9,90,78,67,29.99,29.88,14,3,14,0.00
2013-10-23,38.5,32.4,25.0,32.3,27.3,22.2,90,81,69,30.04,29.96,14,2,14,0.00
2013-10-24,42.2,36.0,32.1,32.7,29.3,25.6,84,77,58,30.27,30.04,19,4,19,0.01
2013-10-25,53.7,42.9,34.5,41.6,33.8,29.0,86,71,57,30.28,29.69,25,6,25,0.00
2013-10-26,51.4,43.9,37.2,41.5,33.9,29.5,81,68,55,30.02,29.68,19,6,23,0.00
2013-10-27,58.4,42.1,30.6,36.8,31.9,27.1,88,69,42,30.10,29.78,19,4,20,0.00
2013-10-28,45.2,35.8,27.9,32.6,24.8,20.9,81,66,40,30.43,30.10,7,1,7,0.00
2013-10-29,42.0,35.6,27.9,37.0,29.8,22.0,87,79,73,30.43,30.10,7,0,7,0.00
2013-10-30,52.5,46.6,40.6,49.0,43.3,37.0,92,88,87,30.11,29.65,7,0,7,0.14
2013-10-31,53.1,48.6,41.1,50.0,45.5,38.4,90,89,88,29.65,29.27,15,3,15,0.07
2013-11-1,45.9,42.3,38.3,41.7,38.7,34.7,92,87,79,29.77,29.28,16,5,16,0.03
2013-11-2,48.9,38.3,30.5,37.8,33.1,27.8,90,82,57,30.11,29.77,11,2,12,0.00
2013-11-3,51.2,40.0,30.1,36.2,32.3,27.5,90,75,55,30.19,29.99,18,3,18,0.32
2013-11-4,46.0,43.4,37.9,43.0,38.5,35.2,90,83,70,30.12,29.88,16,4,16,0.25
2013-11-5,42.8,36.7,29.8,39.8,33.8,27.1,90,89,85,30.24,29.92,7,0,7,0.20
2013-11-6,39.7,34.8,30.6,32.5,29.4,25.5,91,81,58,30.13,29.89,21,5,21,0.15
2013-11-7,35.4,29.7,24.2,29.7,26.1,21.6,90,87,73,30.21,30.13,10,2,10,0.01
2013-11-8,41.9,32.9,22.2,36.3,28.3,19.7,91,83,70,30.21,29.62,15,2,15,0.06
2013-11-9,44.5,40.7,37.4,41.2,34.8,28.6,90,80,65,30.08,29.60,27,9,27,0.00
2013-11-10,43.9,39.3,35.2,33.3,30.4,26.8,81,70,60,30.28,30.05,23,6,23,0.00
2013-11-11,38.8,27.0,17.6,32.1,16.4,9.2,89,65,44,30.66,30.05,18,4,18,0.00
2013-11-12,28.3,19.7,12.6,15.2,11.4,8.0,84,70,51,30.76,30.50,15,4,15,0.00
2013-11-13,47.7,34.7,18.4,33.2,24.9,13.6,81,68,53,30.50,29.88,28,7,28,0.00
2013-11-14,43.2,37.8,35.2,34.4,31.4,28.5,89,78,70,29.88,29.75,14,4,15,0.00
2013-11-15,53.7,40.6,26.8,40.8,34.2,24.0,90,79,59,29.87,29.70,11,2,12,0.00
2013-11-16,53.9,45.8,41.6,50.6,41.2,35.4,89,84,75,29.70,29.24,19,4,19,0.26
2013-11-17,47.5,41.4,32.4,44.2,37.5,27.2,90,86,80,29.67,29.26,31,7,31,0.00
2013-11-18,32.5,28.2,20.3,27.3,22.0,17.4,90,78,70,30.27,29.67,28,8,29,0.00
2013-11-19,38.7,29.6,17.6,25.8,21.7,14.9,90,74,56,30.32,30.05,14,3,14,0.00
2013-11-20,41.4,37.3,33.8,31.8,28.3,24.4,90,71,54,30.05,29.99,18,3,18,0.37
2013-11-21,36.6,32.5,25.8,33.6,29.6,23.0,91,89,87,30.42,30.05,14,2,14,0.00
2013-11-22,29.6,23.7,17.1,22.9,16.8,9.1,89,75,58,30.54,30.42,21,5,21,0.00
2013-11-23,18.4,11.8,4.5,10.6,3.6,0.1,83,70,55,30.77,30.52,18,4,20,0.00
2013-11-24,25.7,15.2,1.5,15.6,6.9,-2.4,86,71,51,30.74,30.05,23,5,23,0.00
2013-11-25,38.7,32.3,25.4,29.6,24.2,15.4,80,72,64,30.05,29.90,23,8,23,0.00
2013-11-26,31.5,19.6,11.0,20.7,10.0,2.5,88,66,53,30.33,29.99,28,6,28,0.00
2013-11-27,26.2,17.5,8.4,15.6,10.3,4.3,86,74,57,30.36,30.14,11,2,12,0.00
2013-11-28,27.1,22.4,12.8,17.3,14.5,8.8,84,72,63,30.52,30.11,15,2,15,0.00
2013-11-29,28.5,19.8,6.8,21.4,14.0,3.3,88,78,66,30.58,30.24,14,2,14,0.00
2013-11-30,38.9,32.1,26.0,29.6,25.5,21.2,83,77,68,30.24,30.01,9,1,9,0.00
2013-12-1,38.3,29.6,23.8,29.3,24.9,20.8,90,83,65,30.17,29.95,7,0,7,0.00
2013-12-2,34.6,30.1,23.5,32.8,27.4,20.7,96,89,88,29.95,29.68,10,1,10,0.00
2013-12-3,34.6,33.1,30.6,31.8,30.3,28.0,90,89,89,29.80,29.65,11,0,12,0.40
2013-12-4,35.7,31.6,24.7,32.8,28.7,21.3,90,89,86,29.80,29.39,24,2,26,0.00
2013-12-5,24.7,10.0,1.2,21.3,5.3,-3.0,92,81,76,30.33,29.56,28,9,28,0.00
2013-12-6,6.6,-0.4,-5.5,0.5,-4.9,-9.3,84,81,74,30.66,30.33,16,4,16,0.53
2013-12-7,2.6,-5.2,-11.1,-4.4,-9.9,-15.3,92,80,70,30.76,30.64,11,2,11,0.00
2013-12-8,11.4,5.5,-5.9,8.2,2.0,-9.6,88,85,83,30.66,30.06,7,0,8,0.00
2013-12-9,10.5,2.9,-6.4,7.7,-1.6,-10.4,92,81,71,30.14,29.98,22,5,22,0.11
2013-12-10,8.1,2.3,-5.8,3.7,-2.3,-9.9,94,81,73,30.26,29.85,19,4,19,0.00
2013-12-11,5.1,-3.3,-8.8,1.3,-9.0,-13.4,92,76,65,30.57,30.26,24,5,24,0.00
2013-12-12,15.3,7.4,-2.7,13.2,2.8,-7.7,92,81,73,30.44,30.20,10,2,10,0.00
2013-12-13,16.1,13.3,10.7,11.3,8.1,5.7,92,79,73,30.33,30.19,5,1,5,0.00
2013-12-14,18.1,12.2,7.3,14.1,8.7,3.0,87,85,81,30.33,30.02,16,2,16,0.00
2013-12-15,7.3,-2.2,-12.6,2.9,-7.9,-16.8,84,76,66,30.22,30.03,18,5,18,0.00
2013-12-16,16.2,4.3,-11.0,13.8,0.4,-14.9,95,84,74,30.21,29.95,13,2,13,0.00
2013-12-17,29.4,22.2,7.9,26.4,17.6,3.3,90,82,73,30.09,29.85,22,6,22,0.00
2013-12-18,29.9,17.0,2.0,20.3,11.4,-1.7,97,79,63,30.08,29.68,21,1,21,0.00
2013-12-19,23.5,18.3,13.1,16.7,13.9,9.4,90,83,74,30.07,29.78,10,1,10,0.00
2013-12-20,20.6,18.0,14.3,17.2,14.0,10.4,89,84,76,30.05,29.86,7,0,7,0.00
2013-12-21,24.7,21.7,19.9,19.5,17.7,16.8,89,85,79,29.99,29.86,8,0,8,0.00
2013-12-22,27.5,23.0,17.4,23.2,19.5,14.5,92,86,81,30.14,29.89,10,2,10,0.00
2013-12-23,17.4,6.9,-3.3,14.5,3.5,-6.9,89,86,83,30.49,30.14,11,4,11,0.52
2013-12-24,12.6,1.9,-12.3,8.7,-1.8,-16.6,96,84,80,30.54,30.22,14,2,14,0.00
2013-12-25,18.7,13.9,9.0,15.8,10.7,5.7,89,87,82,30.22,30.07,13,3,13,0.09
2013-12-26,20.9,15.7,11.0,16.7,12.2,7.6,92,86,82,30.21,30.12,10,0,10,0.00
2013-12-27,36.7,24.2,10.1,31.0,20.8,7.0,90,87,79,30.21,29.90,16,3,16,0.00
2013-12-28,44.4,31.3,22.4,34.2,27.2,19.9,91,85,66,29.99,29.66,18,1,18,0.00
2013-12-29,25.6,4.3,-14.8,21.8,-2.2,-20.3,89,74,60,30.32,29.84,22,5,22,0.00
2013-12-30,-1.8,-9.3,-20.6,-5.7,-14.5,-25.5,92,78,66,30.38,30.27,9,0,9,0.00
2013-12-31,-1.2,-6.3,-16.5,-5.1,-11.1,-21.2,84,79,70,30.49,30.24,11,2,11,0.00
2014-1-1,5.5,-0.9,-14.2,-0.6,-6.9,-18.6,82,75,67,30.56,30.46,7,0,7,0.00
2014-1-2,6.5,-0.9,-11.6,-2.0,-6.2,-16.6,94,78,64,30.51,30.44,10,1,11,0.00